createdAt,value
2018-06-24T00:00:42.178Z,74.51
2018-06-24T00:03:10.505Z,74.43
2018-06-24T00:05:39.423Z,74.40
2018-06-24T00:08:07.169Z,74.66
2018-06-24T00:10:36.094Z,74.78
2018-06-24T00:13:03.849Z,74.77
2018-06-24T00:15:32.201Z,74.86
2018-06-24T00:18:01.159Z,74.86
2018-06-24T00:20:29.515Z,74.80
2018-06-24T00:22:57.876Z,74.87
2018-06-24T00:25:25.628Z,74.70
2018-06-24T00:27:54.551Z,74.42
2018-06-24T00:30:22.883Z,74.34
2018-06-24T00:32:50.647Z,74.48
2018-06-24T00:35:19.578Z,74.66
2018-06-24T00:37:47.318Z,74.82
2018-06-24T00:40:16.238Z,75.01
2018-06-24T00:42:43.987Z,75.18
2018-06-24T00:45:12.327Z,75.15
2018-06-24T00:47:41.250Z,75.05
2018-06-24T00:50:09.812Z,74.93
2018-06-24T00:52:37.931Z,74.84
2018-06-24T00:55:05.673Z,74.59
2018-06-24T00:57:34.596Z,74.42
2018-06-24T01:00:06.787Z,74.56
2018-06-24T01:02:35.141Z,74.71
2018-06-24T01:05:03.466Z,74.83
2018-06-24T01:07:31.807Z,75.07
2018-06-24T01:09:59.573Z,75.32
2018-06-24T01:12:27.905Z,75.45
2018-06-24T01:14:56.817Z,75.56
2018-06-24T01:17:25.145Z,76.04
2018-06-24T01:19:52.953Z,76.13
2018-06-24T01:22:23.874Z,76.25
2018-06-24T01:24:52.902Z,76.28
2018-06-24T01:27:23.891Z,76.35
2018-06-24T01:29:56.041Z,76.40
2018-06-24T01:32:26.439Z,76.52
2018-06-24T01:34:55.763Z,76.67
2018-06-24T01:37:30.996Z,76.95
2018-06-24T01:39:59.683Z,77.17
2018-06-24T01:42:32.038Z,77.58
2018-06-24T01:45:00.505Z,77.39
2018-06-24T01:47:29.934Z,77.20
2018-06-24T01:50:06.164Z,77.29
2018-06-24T01:52:35.226Z,77.54
2018-06-24T01:55:04.643Z,77.83
2018-06-24T01:57:33.278Z,78.15
2018-06-24T02:00:02.289Z,78.39
2018-06-24T02:02:30.479Z,78.39
2018-06-24T02:04:59.643Z,78.35
2018-06-24T02:07:45.311Z,78.35
2018-06-24T02:10:24.678Z,78.14
2018-06-24T02:13:02.246Z,78.10
2018-06-24T02:15:37.443Z,78.13
2018-06-24T02:18:17.931Z,78.21
2018-06-24T02:21:05.490Z,78.21
2018-06-24T02:29:35.107Z,78.30
2018-06-24T02:32:12.770Z,78.34
2018-06-24T02:34:52.322Z,78.18
2018-06-24T02:40:26.115Z,78.27
2018-06-24T02:43:07.552Z,78.52
2018-06-24T02:48:45.728Z,78.40
2018-06-24T02:54:37.324Z,78.84
2018-06-24T02:57:22.187Z,79.48
2018-06-24T02:59:58.051Z,80.40
2018-06-24T03:02:48.139Z,80.60
2018-06-24T03:05:19.603Z,80.87
2018-06-24T03:08:00.605Z,81.32
2018-06-24T03:10:36.884Z,81.00
2018-06-24T03:13:30.556Z,81.19
2018-06-24T03:16:13.579Z,81.20
2018-06-24T03:21:57.132Z,81.43
2018-06-24T03:24:22.755Z,81.56
2018-06-24T03:26:58.461Z,81.79
2018-06-24T03:29:29.994Z,81.55
2018-06-24T03:37:41.416Z,81.89
2018-06-24T03:40:10.129Z,81.87
2018-06-24T03:42:44.461Z,81.42
2018-06-24T03:45:21.795Z,81.33
2018-06-24T03:47:50.590Z,81.38
2018-06-24T03:50:20.083Z,81.81
2018-06-24T03:52:49.487Z,81.84
2018-06-24T03:55:17.895Z,81.55
2018-06-24T03:57:46.118Z,81.14
2018-06-24T04:00:17.421Z,80.91
2018-06-24T04:02:47.893Z,80.67
2018-06-24T04:05:15.696Z,80.44
2018-06-24T04:07:50.654Z,80.61
2018-06-24T04:10:19.301Z,80.75
2018-06-24T04:12:47.832Z,81.11
2018-06-24T04:15:17.587Z,81.16
2018-06-24T04:17:46.301Z,80.92
2018-06-24T04:20:15.215Z,80.59
2018-06-24T04:22:43.791Z,80.28
2018-06-24T04:25:12.297Z,80.05
2018-06-24T04:27:42.536Z,79.93
2018-06-24T04:30:11.682Z,79.52
2018-06-24T04:32:41.307Z,79.11
2018-06-24T04:35:09.972Z,78.93
2018-06-24T04:37:38.369Z,78.82
2018-06-24T04:40:06.786Z,78.38
2018-06-24T04:42:38.861Z,78.30
2018-06-24T04:45:08.488Z,78.06
2018-06-24T04:47:37.195Z,77.69
2018-06-24T04:50:05.519Z,77.46
2018-06-24T04:52:53.937Z,77.26
2018-06-24T04:55:38.600Z,76.85
2018-06-24T04:58:11.146Z,76.50
2018-06-24T05:00:39.494Z,76.50
2018-06-24T05:03:07.806Z,76.55
2018-06-24T05:05:35.546Z,76.10
2018-06-24T05:08:04.458Z,76.58
2018-06-24T05:10:32.784Z,76.42
2018-06-24T05:13:01.102Z,76.53
2018-06-24T05:15:28.853Z,76.38
2018-06-24T05:17:57.750Z,76.11
2018-06-24T05:20:26.075Z,75.62
2018-06-24T05:22:54.453Z,75.30
2018-06-24T05:25:22.772Z,74.75
2018-06-24T05:27:51.091Z,74.47
2018-06-24T05:30:19.426Z,74.19
2018-06-24T05:32:47.743Z,73.73
2018-06-24T05:35:16.062Z,73.08
2018-06-24T05:37:43.830Z,72.88
2018-06-24T05:40:12.136Z,72.78
2018-06-24T05:42:42.279Z,72.96
2018-06-24T05:45:09.373Z,72.65
2018-06-24T05:47:37.692Z,72.35
2018-06-24T05:50:06.007Z,72.43
2018-06-24T05:52:33.746Z,72.31
2018-06-24T05:55:02.102Z,72.24
2018-06-24T05:57:31.013Z,72.41
2018-06-24T05:59:59.321Z,72.34
2018-06-24T06:02:27.641Z,72.58
2018-06-24T06:04:55.391Z,72.74
2018-06-24T06:07:24.300Z,72.89
2018-06-24T06:09:52.617Z,73.37
2018-06-24T06:12:20.951Z,74.02
2018-06-24T06:14:49.504Z,74.80
2018-06-24T06:17:17.609Z,75.14
2018-06-24T06:19:45.930Z,75.50
2018-06-24T06:22:14.261Z,75.82
2018-06-24T06:24:42.612Z,76.30
2018-06-24T06:27:10.943Z,76.58
2018-06-24T06:29:39.347Z,76.48
2018-06-24T06:32:07.089Z,76.31
2018-06-24T06:34:35.997Z,76.63
2018-06-24T06:37:04.337Z,76.88
2018-06-24T06:39:32.135Z,77.12
2018-06-24T06:42:01.212Z,77.72
2018-06-24T06:44:28.802Z,78.16
2018-06-24T06:46:57.715Z,78.32
2018-06-24T06:49:25.457Z,78.52
2018-06-24T06:51:54.363Z,78.13
2018-06-24T06:54:22.105Z,77.72
2018-06-24T06:56:50.438Z,77.08
2018-06-24T06:59:19.330Z,76.59
2018-06-24T07:01:47.679Z,76.28
2018-06-24T07:04:15.438Z,75.71
2018-06-24T07:06:44.348Z,75.50
2018-06-24T07:09:12.650Z,75.35
2018-06-24T07:11:40.963Z,75.27
2018-06-24T07:14:09.293Z,75.50
2018-06-24T07:16:37.610Z,75.31
2018-06-24T07:19:05.966Z,74.03
2018-06-24T07:21:34.300Z,74.58
2018-06-24T07:24:02.660Z,74.23
2018-06-24T07:26:31.039Z,74.16
2018-06-24T07:28:58.785Z,73.87
2018-06-24T07:31:27.693Z,73.24
2018-06-24T07:33:55.453Z,72.49
2018-06-24T07:36:24.355Z,71.76
2018-06-24T07:38:52.100Z,70.31
2018-06-24T07:41:21.076Z,69.17
2018-06-24T07:43:48.816Z,68.82
2018-06-24T07:46:17.135Z,68.92
2018-06-24T07:48:46.056Z,69.02
2018-06-24T07:51:14.377Z,69.10
2018-06-24T07:53:42.696Z,68.50
2018-06-24T07:56:11.027Z,68.25
2018-06-24T07:58:39.357Z,68.07
2018-06-24T08:01:07.110Z,67.15
2018-06-24T08:03:36.019Z,65.94
2018-06-24T08:06:04.344Z,64.44
2018-06-24T08:08:32.668Z,63.70
2018-06-24T08:11:01.604Z,63.26
2018-06-24T08:13:29.323Z,63.30
2018-06-24T08:15:57.650Z,62.85
2018-06-24T08:18:25.390Z,62.06
2018-06-24T08:20:54.291Z,61.51
2018-06-24T08:23:22.614Z,60.51
2018-06-24T08:25:50.936Z,60.39
2018-06-24T08:28:19.387Z,59.86
2018-06-24T08:30:47.734Z,59.54
2018-06-24T08:33:16.070Z,59.04
2018-06-24T08:35:44.391Z,59.08
2018-06-24T08:38:12.709Z,58.91
2018-06-24T08:40:40.494Z,58.50
2018-06-24T08:43:09.361Z,58.09
2018-06-24T08:45:37.755Z,57.61
2018-06-24T08:48:05.501Z,57.33
2018-06-24T08:50:34.641Z,56.66
2018-06-24T08:53:02.783Z,55.93
2018-06-24T08:55:31.151Z,55.69
2018-06-24T08:57:59.465Z,56.34
2018-06-24T09:00:27.792Z,54.34
2018-06-24T09:02:55.541Z,54.39
2018-06-24T09:05:24.447Z,54.31
2018-06-24T09:07:52.781Z,54.64
2018-06-24T09:10:21.109Z,54.15
2018-06-24T09:12:49.666Z,53.48
2018-06-24T09:15:17.769Z,53.55
2018-06-24T09:17:46.245Z,53.28
2018-06-24T09:20:13.994Z,53.08
2018-06-24T09:22:42.987Z,52.15
2018-06-24T09:25:10.739Z,52.29
2018-06-24T09:27:39.107Z,52.39
2018-06-24T09:30:07.453Z,51.92
2018-06-24T09:32:36.367Z,51.63
2018-06-24T09:35:04.691Z,51.14
2018-06-24T09:37:33.018Z,51.12
2018-06-24T09:40:01.343Z,49.78
2018-06-24T09:42:29.096Z,50.21
2018-06-24T09:44:57.427Z,50.64
2018-06-24T09:47:26.340Z,50.17
2018-06-24T09:49:54.124Z,50.69
2018-06-24T09:52:23.035Z,51.24
2018-06-24T09:54:50.775Z,50.94
2018-06-24T09:57:19.700Z,51.17
2018-06-24T09:59:48.035Z,50.75
2018-06-24T10:02:16.381Z,50.13
2018-06-24T10:04:44.718Z,50.66
2018-06-24T10:07:13.088Z,51.19
2018-06-24T10:09:40.788Z,50.55
2018-06-24T10:12:09.141Z,50.18
2018-06-24T10:14:38.054Z,49.35
2018-06-24T10:17:06.390Z,49.32
2018-06-24T10:19:34.716Z,49.49
2018-06-24T10:22:02.476Z,48.59
2018-06-24T10:24:31.378Z,49.15
2018-06-24T10:26:59.710Z,49.16
2018-06-24T10:29:27.501Z,48.87
2018-06-24T10:31:56.384Z,48.38
2018-06-24T10:34:24.753Z,48.53
2018-06-24T10:36:53.994Z,48.74
2018-06-24T10:39:22.340Z,48.41
2018-06-24T10:41:50.657Z,47.96
2018-06-24T10:44:19.004Z,47.70
2018-06-24T10:46:46.752Z,47.29
2018-06-24T10:49:15.675Z,47.70
2018-06-24T10:51:44.007Z,48.18
2018-06-24T10:54:12.335Z,48.58
2018-06-24T10:56:40.111Z,48.18
2018-06-24T10:59:09.001Z,47.02
2018-06-24T11:01:37.328Z,45.88
2018-06-24T11:04:05.651Z,45.82
2018-06-24T11:06:34.013Z,46.20
2018-06-24T11:09:02.359Z,46.12
2018-06-24T11:11:30.700Z,46.61
2018-06-24T11:13:59.071Z,45.89
2018-06-24T11:16:27.398Z,45.84
2018-06-24T11:18:55.730Z,46.45
2018-06-24T11:21:24.053Z,46.56
2018-06-24T11:23:52.364Z,46.79
2018-06-24T11:26:20.106Z,46.73
2018-06-24T11:28:49.069Z,46.88
2018-06-24T11:31:17.595Z,46.97
2018-06-24T11:33:46.049Z,46.18
2018-06-24T11:36:14.332Z,46.01
2018-06-24T11:38:42.802Z,46.39
2018-06-24T11:41:11.140Z,46.00
2018-06-24T11:43:39.488Z,46.24
2018-06-24T11:46:07.889Z,46.36
2018-06-24T11:48:36.216Z,46.58
2018-06-24T11:51:04.551Z,45.91
2018-06-24T11:53:33.011Z,45.77
2018-06-24T11:56:01.339Z,44.55
2018-06-24T11:58:29.662Z,44.49
2018-06-24T12:00:57.977Z,44.03
2018-06-24T12:03:26.309Z,44.18
2018-06-24T12:05:54.046Z,43.97
2018-06-24T12:08:22.946Z,44.05
2018-06-24T12:10:50.758Z,44.28
2018-06-24T12:13:19.629Z,44.73
2018-06-24T12:15:47.946Z,45.34
2018-06-24T12:18:16.564Z,44.91
2018-06-24T12:20:44.834Z,44.32
2018-06-24T12:23:13.146Z,45.14
2018-06-24T12:25:41.480Z,45.55
2018-06-24T12:28:09.802Z,44.20
2018-06-24T12:30:37.559Z,44.25
2018-06-24T12:33:06.590Z,44.07
2018-06-24T12:35:35.096Z,44.42
2018-06-24T12:38:10.493Z,44.31
2018-06-24T12:40:38.300Z,44.92
2018-06-24T12:43:07.224Z,43.46
2018-06-24T12:45:35.671Z,43.62
2018-06-24T12:48:03.397Z,43.60
2018-06-24T12:50:32.333Z,43.27
2018-06-24T12:53:00.652Z,43.74
2018-06-24T12:55:29.483Z,44.41
2018-06-24T12:57:57.230Z,44.57
2018-06-24T13:00:26.711Z,44.37
2018-06-24T13:02:54.466Z,44.38
2018-06-24T13:05:23.004Z,44.60
2018-06-24T13:07:51.274Z,45.03
2018-06-24T13:10:19.589Z,46.07
2018-06-24T13:12:48.019Z,46.17
2018-06-24T13:15:16.345Z,46.59
2018-06-24T13:17:44.086Z,47.38
2018-06-24T13:20:12.408Z,48.26
2018-06-24T13:22:40.718Z,48.80
2018-06-24T13:25:09.620Z,49.06
2018-06-24T13:27:37.375Z,49.23
2018-06-24T13:30:06.280Z,49.39
2018-06-24T13:32:34.014Z,50.10
2018-06-24T13:35:02.344Z,50.20
2018-06-24T13:37:30.734Z,50.45
2018-06-24T13:39:59.057Z,50.79
2018-06-24T13:42:27.409Z,51.00
2018-06-24T13:44:55.713Z,51.08
2018-06-24T13:47:24.632Z,51.15
2018-06-24T13:49:52.968Z,51.63
2018-06-24T13:52:20.715Z,51.76
2018-06-24T13:54:49.614Z,52.61
2018-06-24T13:57:17.358Z,51.98
2018-06-24T13:59:46.256Z,51.59
2018-06-24T14:02:14.586Z,52.32
2018-06-24T14:04:42.902Z,52.57
2018-06-24T14:07:10.647Z,52.86
2018-06-24T14:09:39.662Z,52.43
2018-06-24T14:12:07.990Z,52.38
2018-06-24T14:14:36.310Z,51.91
2018-06-24T14:17:04.075Z,51.63
2018-06-24T14:19:32.405Z,50.95
2018-06-24T14:22:06.460Z,51.11
2018-06-24T14:24:35.373Z,48.85
2018-06-24T14:27:03.716Z,48.80
2018-06-24T14:29:32.046Z,47.10
2018-06-24T14:32:00.386Z,46.41
2018-06-24T14:34:28.707Z,45.98
2018-06-24T14:36:57.053Z,45.19
2018-06-24T14:39:25.453Z,45.59
2018-06-24T14:41:53.186Z,45.12
2018-06-24T14:44:22.092Z,44.77
2018-06-24T14:46:50.515Z,44.86
2018-06-24T14:49:18.864Z,44.82
2018-06-24T14:51:47.198Z,44.81
2018-06-24T14:54:15.522Z,43.89
2018-06-24T14:56:43.855Z,44.08
2018-06-24T14:59:12.202Z,44.64
2018-06-24T15:01:40.604Z,44.62
2018-06-24T15:04:08.886Z,43.96
2018-06-24T15:06:37.230Z,43.18
2018-06-24T15:09:05.571Z,42.21
2018-06-24T15:11:33.908Z,41.52
2018-06-24T15:14:02.267Z,41.60
2018-06-24T15:16:30.591Z,41.47
2018-06-24T15:18:58.913Z,40.72
2018-06-24T15:21:27.243Z,40.14
2018-06-24T15:23:55.576Z,40.71
2018-06-24T15:26:23.922Z,40.57
2018-06-24T15:28:52.285Z,41.01
2018-06-24T15:31:20.006Z,41.28
2018-06-24T15:33:48.921Z,41.66
2018-06-24T15:36:17.271Z,40.84
2018-06-24T15:38:45.590Z,40.98
2018-06-24T15:41:13.987Z,40.81
2018-06-24T15:43:41.730Z,40.38
2018-06-24T15:46:10.638Z,39.91
2018-06-24T15:48:38.974Z,40.77
2018-06-24T15:51:07.290Z,40.96
2018-06-24T15:53:35.048Z,40.74
2018-06-24T15:56:04.025Z,40.63
2018-06-24T15:58:31.830Z,40.72
2018-06-24T16:01:00.743Z,41.36
2018-06-24T16:03:29.067Z,41.82
2018-06-24T16:05:57.428Z,41.88
2018-06-24T16:08:25.144Z,41.63
2018-06-24T16:10:54.078Z,41.31
2018-06-24T16:13:22.614Z,41.47
2018-06-24T16:15:50.865Z,41.84
2018-06-24T16:18:18.645Z,42.05
2018-06-24T16:20:47.625Z,42.50
2018-06-24T16:23:15.891Z,42.90
2018-06-24T16:25:44.228Z,42.73
2018-06-24T16:28:12.818Z,43.13
2018-06-24T16:30:41.217Z,43.53
2018-06-24T16:33:09.487Z,44.01
2018-06-24T16:35:37.837Z,44.35
2018-06-24T16:38:06.161Z,44.51
2018-06-24T16:40:33.901Z,44.96
2018-06-24T16:43:02.873Z,45.07
2018-06-24T16:45:31.194Z,45.02
2018-06-24T16:47:59.534Z,44.96
2018-06-24T16:50:28.097Z,45.20
2018-06-24T16:52:56.236Z,45.50
2018-06-24T16:55:24.577Z,45.84
2018-06-24T16:57:52.919Z,46.08
2018-06-24T17:00:21.278Z,46.09
2018-06-24T17:02:49.683Z,46.25
2018-06-24T17:05:17.971Z,46.14
2018-06-24T17:07:46.528Z,46.39
2018-06-24T17:10:14.740Z,46.53
2018-06-24T17:12:43.112Z,46.72
2018-06-24T17:15:11.457Z,46.97
2018-06-24T17:17:39.921Z,47.01
2018-06-24T17:20:08.257Z,46.88
2018-06-24T17:22:36.913Z,47.20
2018-06-24T17:25:05.014Z,47.30
2018-06-24T17:27:33.678Z,47.55
2018-06-24T17:30:01.825Z,47.84
2018-06-24T17:32:30.223Z,48.00
2018-06-24T17:34:58.529Z,48.02
2018-06-24T17:37:26.861Z,47.74
2018-06-24T17:39:56.551Z,47.80
2018-06-24T17:42:23.515Z,47.81
2018-06-24T17:44:51.891Z,47.76
2018-06-24T17:47:20.290Z,47.74
2018-06-24T17:49:48.625Z,47.87
2018-06-24T17:52:17.008Z,47.73
2018-06-24T17:54:45.322Z,47.85
2018-06-24T17:57:13.763Z,48.02
2018-06-24T17:59:42.086Z,48.04
2018-06-24T18:02:10.408Z,48.34
2018-06-24T18:04:38.734Z,48.30
2018-06-24T18:07:07.066Z,48.55
2018-06-24T18:09:35.400Z,48.88
2018-06-24T18:12:03.739Z,49.31
2018-06-24T18:14:32.155Z,49.52
2018-06-24T18:17:00.427Z,49.75
2018-06-24T18:19:28.855Z,50.04
2018-06-24T18:21:57.539Z,49.92
2018-06-24T18:24:25.704Z,49.87
2018-06-24T18:26:54.148Z,50.01
2018-06-24T18:29:22.652Z,50.39
2018-06-24T18:31:50.475Z,50.66
2018-06-24T18:34:19.394Z,51.25
2018-06-24T18:36:47.812Z,52.09
2018-06-24T18:39:16.239Z,51.83
2018-06-24T18:41:44.608Z,52.03
2018-06-24T18:44:12.932Z,52.67
2018-06-24T18:46:41.338Z,53.29
2018-06-24T18:49:09.803Z,53.36
2018-06-24T18:51:38.150Z,53.52
2018-06-24T18:54:06.484Z,53.69
2018-06-24T18:56:35.050Z,53.75
2018-06-24T18:59:03.396Z,53.56
2018-06-24T19:01:31.718Z,53.64
2018-06-24T19:04:00.084Z,53.81
2018-06-24T19:06:28.514Z,53.95
2018-06-24T19:08:56.881Z,54.10
2018-06-24T19:11:25.805Z,54.36
2018-06-24T19:13:54.065Z,54.76
2018-06-24T19:16:22.127Z,55.19
2018-06-24T19:18:50.542Z,55.52
2018-06-24T19:21:18.938Z,55.96
2018-06-24T19:23:47.310Z,56.14
2018-06-24T19:26:15.761Z,56.25
2018-06-24T19:28:44.093Z,56.50
2018-06-24T19:31:12.447Z,56.26
2018-06-24T19:33:40.860Z,56.20
2018-06-24T19:36:09.209Z,56.25
2018-06-24T19:38:39.494Z,56.24
2018-06-24T19:41:07.828Z,56.29
2018-06-24T19:43:36.214Z,56.42
2018-06-24T19:46:03.990Z,56.30
2018-06-24T19:48:32.970Z,56.20
2018-06-24T19:51:01.326Z,56.27
2018-06-24T19:53:29.660Z,56.17
2018-06-24T19:55:57.973Z,56.30
2018-06-24T19:58:26.529Z,56.43
2018-06-24T20:00:54.754Z,56.54
2018-06-24T20:03:23.080Z,56.74
2018-06-24T20:05:51.546Z,56.88
2018-06-24T20:08:19.890Z,57.16
2018-06-24T20:10:48.238Z,57.54
2018-06-24T20:13:16.637Z,57.98
2018-06-24T20:15:45.031Z,58.35
2018-06-24T20:18:12.768Z,58.77
2018-06-24T20:20:41.671Z,59.27
2018-06-24T20:23:10.255Z,59.65
2018-06-24T20:25:38.588Z,60.90
2018-06-24T20:28:06.328Z,61.18
2018-06-24T20:30:34.691Z,61.83
2018-06-24T20:33:04.160Z,63.39
2018-06-24T20:35:32.478Z,62.31
2018-06-24T20:38:00.821Z,63.03
2018-06-24T20:40:29.263Z,63.66
2018-06-24T20:42:57.165Z,63.71
2018-06-24T20:45:25.493Z,64.22
2018-06-24T20:47:54.419Z,64.76
2018-06-24T20:50:23.157Z,65.09
2018-06-24T20:52:51.515Z,65.10
2018-06-24T20:55:19.324Z,65.67
2018-06-24T20:57:48.285Z,66.17
2018-06-24T21:00:16.722Z,66.58
2018-06-24T21:02:45.111Z,66.97
2018-06-24T21:05:12.864Z,67.77
2018-06-24T21:07:41.768Z,67.79
2018-06-24T21:10:10.159Z,68.11
2018-06-24T21:12:38.491Z,68.80
2018-06-24T21:15:06.816Z,68.74
2018-06-24T21:17:35.136Z,70.03
2018-06-24T21:20:02.879Z,69.94
2018-06-24T21:22:31.212Z,69.81
2018-06-24T21:25:00.121Z,69.71
2018-06-24T21:27:28.439Z,70.24
2018-06-24T21:29:56.766Z,70.20
2018-06-24T21:32:25.116Z,70.46
2018-06-24T21:34:52.853Z,70.72
2018-06-24T21:37:21.780Z,70.72
2018-06-24T21:39:50.089Z,70.76
2018-06-24T21:42:18.414Z,70.79
2018-06-24T21:44:46.749Z,70.96
2018-06-24T21:47:14.506Z,70.85
2018-06-24T21:49:43.406Z,71.08
2018-06-24T21:52:11.782Z,71.01
2018-06-24T21:54:39.646Z,71.20
2018-06-24T21:57:08.554Z,71.10
2018-06-24T21:59:36.943Z,71.40
2018-06-24T22:02:05.278Z,71.84
2018-06-24T22:04:33.669Z,72.35
2018-06-24T22:07:01.413Z,72.66
2018-06-24T22:09:30.313Z,72.50
2018-06-24T22:11:58.630Z,72.48
2018-06-24T22:14:27.074Z,72.45
2018-06-24T22:16:55.402Z,72.46
2018-06-24T22:19:23.720Z,73.15
2018-06-24T22:21:51.555Z,73.09
2018-06-24T22:24:19.847Z,73.81
2018-06-24T22:26:48.749Z,74.10
2018-06-24T22:29:17.076Z,74.32
2018-06-24T22:31:44.822Z,74.15
2018-06-24T22:34:13.967Z,74.14
2018-06-24T22:36:41.486Z,73.97
2018-06-24T22:39:09.823Z,74.13
2018-06-24T22:41:38.733Z,74.11
2018-06-24T22:44:07.070Z,74.36
2018-06-24T22:46:35.621Z,74.22
2018-06-24T22:49:03.729Z,74.04
2018-06-24T22:51:32.057Z,74.00
2018-06-24T22:53:59.846Z,73.86
2018-06-24T22:56:28.744Z,73.85
2018-06-24T22:58:57.072Z,73.81
2018-06-24T23:01:24.818Z,73.81
2018-06-24T23:03:53.721Z,73.83
2018-06-24T23:06:21.477Z,73.98
2018-06-24T23:08:50.432Z,74.04
2018-06-24T23:11:18.161Z,74.28
2018-06-24T23:13:47.056Z,74.14
2018-06-24T23:16:14.806Z,74.15
2018-06-24T23:18:43.729Z,74.03
2018-06-24T23:21:12.051Z,73.90
2018-06-24T23:23:40.365Z,73.81
2018-06-24T23:26:08.101Z,73.91
2018-06-24T23:28:36.476Z,73.97
2018-06-24T23:31:05.598Z,73.92
2018-06-24T23:33:33.694Z,74.18
2018-06-24T23:36:01.435Z,74.38
2018-06-24T23:38:30.330Z,74.37
2018-06-24T23:40:58.679Z,74.70
2018-06-24T23:43:27.024Z,74.82
2018-06-24T23:45:55.340Z,74.89
2018-06-24T23:48:23.661Z,75.45
2018-06-24T23:50:51.400Z,76.01
2018-06-24T23:53:19.719Z,75.79
2018-06-24T23:55:48.102Z,76.35
2018-06-24T23:58:17.017Z,76.38
